Time;durP1;ratioP1;P1;durP2;ratioP2;P2;SDS_P1;SDS_P2;PMS_P1;PMS_P2;Temp;Humidity;BMP_temperature;BMP_pressure;BME280_temperature;BME280_humidity;BME280_pressure;Samples;Min_cycle;Max_cycle;Signal;HPM_P1;HPM_P2
2022/01/26 00:07:18;;;;;;;92.85;38.47;;;;;;;4.73;68.58;103290.16;5073192;28;20048;-61
2022/01/26 00:09:43;;;;;;;88.07;36.38;;;;;;;4.78;68.79;103291.38;5072937;28;20040;-61
2022/01/26 00:12:10;;;;;;;97.05;38.78;;;;;;;4.83;68.61;103301.28;5073171;28;20056;-60
2022/01/26 00:14:38;;;;;;;87.57;35.85;;;;;;;4.86;68.94;103298.91;5073142;28;20378;-60
2022/01/26 00:17:04;;;;;;;91.80;36.75;;;;;;;4.83;68.84;103299.59;5073006;28;20474;-60
2022/01/26 00:19:45;;;;;;;87.78;36.58;;;;;;;4.87;68.61;103298.09;5072959;28;20082;-60
2022/01/26 00:22:11;;;;;;;92.05;36.88;;;;;;;4.88;69.20;103294.69;5072944;28;20028;-61
2022/01/26 00:27:09;;;;;;;95.05;37.78;;;;;;;4.76;68.78;103293.00;5072949;28;20037;-60
2022/01/26 00:29:37;;;;;;;96.60;39.30;;;;;;;4.72;68.53;103293.56;5072976;28;20029;-60
2022/01/26 00:40:27;;;;;;;94.35;37.67;;;;;;;4.80;68.67;103285.34;5073155;28;20067;-60
2022/01/26 00:42:55;;;;;;;94.28;38.72;;;;;;;4.78;68.68;103272.16;5072848;28;20492;-60
2022/01/26 00:45:25;;;;;;;96.80;40.15;;;;;;;4.78;69.12;103278.28;5072636;28;20482;-61
2022/01/26 00:47:51;;;;;;;92.88;37.53;;;;;;;4.82;69.54;103279.44;5072286;28;20049;-61
2022/01/26 00:50:16;;;;;;;97.97;39.20;;;;;;;4.87;68.78;103279.75;5072794;28;20045;-60
2022/01/26 00:52:45;;;;;;;95.00;38.17;;;;;;;4.83;69.46;103276.00;5072807;28;20366;-60
2022/01/26 00:55:17;;;;;;;93.82;37.20;;;;;;;4.83;68.92;103275.09;5072670;28;20035;-60
2022/01/26 00:57:43;;;;;;;96.22;38.13;;;;;;;4.84;69.97;103274.28;5072510;28;20028;-62
2022/01/26 01:00:13;;;;;;;95.32;39.83;;;;;;;4.85;69.03;103276.13;5075327;28;20039;-60
2022/01/26 01:02:38;;;;;;;99.75;38.95;;;;;;;4.85;69.69;103271.81;5076448;28;20028;-60
2022/01/26 01:05:12;;;;;;;98.15;39.15;;;;;;;4.91;69.47;103273.94;5076428;28;20031;-60
2022/01/26 01:07:39;;;;;;;105.80;40.45;;;;;;;4.94;69.20;103276.81;5076217;28;20032;-60
2022/01/26 01:10:06;;;;;;;97.75;37.72;;;;;;;4.91;68.98;103277.47;5076254;28;20082;-60
2022/01/26 01:12:37;;;;;;;90.90;38.00;;;;;;;4.90;68.45;103275.66;5075902;28;20554;-61
2022/01/26 01:15:03;;;;;;;96.78;38.13;;;;;;;4.88;69.23;103276.34;5076097;28;20037;-61
2022/01/26 01:17:36;;;;;;;99.00;39.20;;;;;;;4.85;69.36;103268.28;5076192;28;20524;-61
2022/01/26 01:22:55;;;;;;;100.03;39.08;;;;;;;4.85;69.68;103269.19;5076115;28;20032;-60
2022/01/26 01:27:58;;;;;;;104.65;39.40;;;;;;;4.80;68.59;103252.22;5076046;28;20032;-60
2022/01/26 01:30:29;;;;;;;104.75;38.78;;;;;;;4.72;68.43;103254.28;5075803;28;20107;-60
2022/01/26 01:33:09;;;;;;;95.10;36.85;;;;;;;4.73;68.68;103249.94;5075834;28;20025;-61
2022/01/26 01:35:38;;;;;;;100.15;38.30;;;;;;;4.73;69.33;103244.72;5075601;28;20025;-61
2022/01/26 01:38:26;;;;;;;103.60;38.20;;;;;;;4.76;69.10;103244.94;5057746;28;20090;-60
2022/01/26 01:40:51;;;;;;;98.45;39.03;;;;;;;4.77;69.20;103237.19;5075666;28;20485;-61
2022/01/26 01:43:20;;;;;;;92.28;36.90;;;;;;;4.78;69.47;103236.38;5075792;28;20118;-60
2022/01/26 01:45:49;;;;;;;99.30;39.38;;;;;;;4.82;68.86;103239.22;5075510;28;20024;-60
2022/01/26 01:48:19;;;;;;;97.20;37.75;;;;;;;4.85;68.79;103242.09;5075202;28;20033;-61
2022/01/26 01:50:46;;;;;;;100.38;38.88;;;;;;;4.84;68.78;103249.03;5075611;28;20095;-60
2022/01/26 01:53:15;;;;;;;94.90;37.42;;;;;;;4.81;68.58;103246.19;5075499;28;20110;-60
2022/01/26 01:55:51;;;;;;;102.53;39.03;;;;;;;4.81;68.86;103247.91;5075460;28;20047;-60
2022/01/26 01:58:18;;;;;;;101.38;37.50;;;;;;;4.80;69.45;103251.28;5075387;28;20025;-60
2022/01/26 02:00:43;;;;;;;105.75;37.80;;;;;;;4.80;68.80;103240.81;5075352;28;20108;-61
2022/01/26 02:03:09;;;;;;;96.00;36.20;;;;;;;4.79;69.23;103242.53;5075271;28;20103;-60
2022/01/26 02:05:34;;;;;;;95.90;37.40;;;;;;;4.77;69.31;103247.66;5075461;28;20031;-60
2022/01/26 02:08:00;;;;;;;96.00;37.30;;;;;;;4.76;68.49;103242.34;5075422;28;20070;-60
2022/01/26 02:10:28;;;;;;;97.45;37.05;;;;;;;4.76;68.82;103242.34;5074978;28;20383;-60
2022/01/26 02:13:03;;;;;;;89.68;35.80;;;;;;;4.76;69.23;103238.00;5075058;28;20489;-60
2022/01/26 02:15:38;;;;;;;96.25;37.15;;;;;;;4.70;68.82;103227.06;5074894;28;20108;-61
2022/01/26 02:53:47;;;;;;;95.97;35.40;;;;;;;4.61;69.21;103187.13;5074463;28;20499;-60
2022/01/26 02:56:21;;;;;;;93.55;35.05;;;;;;;4.59;68.73;103186.09;5073896;28;20044;-60
2022/01/26 03:04:03;;;;;;;96.45;37.80;;;;;;;4.63;68.36;103172.44;5073918;28;20425;-61
2022/01/26 03:06:38;;;;;;;96.72;35.40;;;;;;;4.62;68.86;103173.22;5074066;28;20039;-61
2022/01/26 03:09:10;;;;;;;102.20;36.70;;;;;;;4.61;68.41;103176.63;5073954;28;20070;-60
2022/01/26 03:11:38;;;;;;;94.63;36.30;;;;;;;4.64;69.95;103179.50;5073865;28;20028;-60
2022/01/26 03:14:14;;;;;;;102.18;35.88;;;;;;;4.68;68.79;103183.25;5056048;28;20086;-61
2022/01/26 03:16:45;;;;;;;103.68;36.38;;;;;;;4.56;69.01;103166.63;5055896;28;20043;-60
2022/01/26 03:19:33;;;;;;;96.63;36.72;;;;;;;4.42;69.14;103166.56;5073861;28;20028;-60
2022/01/26 03:35:13;;;;;;;96.28;35.17;;;;;;;4.38;70.15;103181.91;5073524;28;20036;-61
2022/01/26 03:37:39;;;;;;;97.00;34.65;;;;;;;4.44;69.61;103174.50;5073454;28;20482;-61
2022/01/26 03:40:12;;;;;;;98.45;37.20;;;;;;;4.44;69.38;103166.66;5073401;28;20103;-61
2022/01/26 03:42:38;;;;;;;99.45;37.15;;;;;;;4.40;69.96;103175.97;5073338;28;20035;-61
2022/01/26 03:45:04;;;;;;;100.63;36.97;;;;;;;4.39;69.55;103174.16;5073344;28;20028;-60
2022/01/26 03:47:29;;;;;;;102.38;35.90;;;;;;;4.47;69.65;103178.25;5073021;28;20040;-61
2022/01/26 03:49:54;;;;;;;99.43;36.38;;;;;;;4.56;69.69;103175.41;5073272;28;20051;-61
2022/01/26 03:52:20;;;;;;;94.97;35.42;;;;;;;4.56;69.41;103167.53;5073220;28;20120;-61
2022/01/26 03:54:45;;;;;;;94.75;35.42;;;;;;;4.52;69.46;103158.56;5073334;28;20027;-60
2022/01/26 03:57:10;;;;;;;96.82;36.47;;;;;;;4.50;69.96;103159.25;5073428;28;20028;-61
2022/01/26 03:59:36;;;;;;;96.10;33.92;;;;;;;4.49;69.87;103154.81;5073080;28;20505;-60
2022/01/26 04:02:02;;;;;;;97.22;36.33;;;;;;;4.50;69.62;103165.41;5073198;28;20062;-61
2022/01/26 04:04:31;;;;;;;100.38;36.92;;;;;;;4.49;68.60;103155.72;5073184;28;20051;-60
2022/01/26 04:06:59;;;;;;;99.20;36.45;;;;;;;4.40;69.31;103159.38;5072883;28;20134;-61
2022/01/26 04:09:25;;;;;;;93.63;35.03;;;;;;;4.29;69.90;103169.06;5073090;28;20032;-60
2022/01/26 04:11:50;;;;;;;93.82;35.58;;;;;;;4.24;69.57;103168.75;5073048;28;20031;-60
2022/01/26 04:14:19;;;;;;;97.20;37.55;;;;;;;4.15;69.92;103161.88;5073138;28;20066;-61
2022/01/26 04:16:45;;;;;;;97.85;36.83;;;;;;;4.05;70.42;103164.63;5072902;28;20038;-60
2022/01/26 04:19:10;;;;;;;99.70;35.75;;;;;;;4.02;70.66;103157.44;5073064;28;20025;-60
2022/01/26 04:29:13;;;;;;;100.70;37.23;;;;;;;3.82;71.81;103168.16;5073256;28;20037;-60
2022/01/26 04:31:38;;;;;;;105.78;35.35;;;;;;;3.73;71.67;103174.50;5072828;28;20037;-60
2022/01/26 04:34:03;;;;;;;104.28;36.80;;;;;;;3.73;72.74;103176.22;5074072;28;20370;-61
2022/01/26 04:36:42;;;;;;;104.45;36.40;;;;;;;3.74;72.63;103173.72;5076942;28;20029;-61
2022/01/26 04:39:12;;;;;;;106.38;37.00;;;;;;;3.71;72.35;103177.78;5077053;28;20103;-60
2022/01/26 04:41:45;;;;;;;96.93;35.05;;;;;;;3.74;72.30;103192.00;5076810;28;20025;-61
2022/01/26 04:44:19;;;;;;;109.50;38.00;;;;;;;3.71;72.33;103197.00;5076839;28;20043;-60
2022/01/26 04:46:45;;;;;;;100.97;35.40;;;;;;;3.70;71.93;103207.34;5076368;28;20028;-61
2022/01/26 04:49:10;;;;;;;107.47;38.55;;;;;;;3.65;71.83;103200.88;5076932;28;20017;-61
2022/01/26 04:51:35;;;;;;;99.45;35.15;;;;;;;3.70;71.93;103205.63;5076631;28;20381;-61
2022/01/26 04:54:01;;;;;;;98.50;34.58;;;;;;;3.82;73.05;103216.13;5076660;28;20385;-61
2022/01/26 04:56:26;;;;;;;100.53;35.45;;;;;;;3.90;71.21;103212.41;5076499;28;20489;-60
2022/01/26 04:58:51;;;;;;;107.20;37.30;;;;;;;3.89;71.58;103187.00;5076494;28;20024;-61
2022/01/26 05:01:17;;;;;;;109.13;37.30;;;;;;;3.84;71.54;103205.78;5076468;28;20020;-60
2022/01/26 05:03:42;;;;;;;100.13;34.38;;;;;;;3.85;72.43;103208.50;5076340;28;20024;-61
2022/01/26 05:06:07;;;;;;;102.90;34.75;;;;;;;3.89;71.36;103201.81;5076223;28;20150;-60
2022/01/26 05:08:33;;;;;;;101.63;36.35;;;;;;;3.84;71.87;103192.69;5076470;28;20052;-59
2022/01/26 05:11:00;;;;;;;102.70;36.97;;;;;;;3.76;71.87;103185.19;5076117;28;20453;-60
2022/01/26 05:13:25;;;;;;;96.88;33.75;;;;;;;3.69;72.95;103201.22;5076006;28;20031;-59
2022/01/26 05:15:50;;;;;;;105.93;37.55;;;;;;;3.70;72.86;103202.13;5057865;28;20025;-59
2022/01/26 05:18:16;;;;;;;101.55;35.30;;;;;;;3.66;73.22;103192.22;5075688;28;20024;-58
2022/01/26 05:20:41;;;;;;;105.07;36.83;;;;;;;3.59;73.03;103175.13;5075787;28;20056;-60
2022/01/26 05:23:08;;;;;;;100.70;35.22;;;;;;;3.57;73.09;103174.13;5076101;28;20024;-61
2022/01/26 05:25:34;;;;;;;105.60;39.33;;;;;;;3.53;73.07;103161.63;5076031;28;20529;-60
2022/01/26 05:27:59;;;;;;;101.70;37.30;;;;;;;3.49;73.56;103164.78;5075832;28;20120;-60
2022/01/26 05:30:25;;;;;;;107.97;37.80;;;;;;;3.42;73.10;103145.09;5075866;28;20052;-61
2022/01/26 05:32:50;;;;;;;101.63;36.10;;;;;;;3.36;73.87;103156.81;5057867;28;20071;-61
2022/01/26 05:35:16;;;;;;;102.13;36.33;;;;;;;3.30;74.35;103165.09;5075917;28;20440;-61
2022/01/26 05:37:41;;;;;;;105.32;38.83;;;;;;;3.25;74.63;103149.06;5075779;28;20061;-60
2022/01/26 05:40:07;;;;;;;101.10;37.35;;;;;;;3.26;74.20;103157.81;5075728;28;20058;-60
2022/01/26 05:42:35;;;;;;;101.63;35.30;;;;;;;3.29;74.15;103178.91;5075554;28;20534;-60
2022/01/26 05:45:04;;;;;;;98.80;34.13;;;;;;;3.25;74.41;103158.56;5075036;28;20115;-60
2022/01/26 05:47:32;;;;;;;105.00;36.90;;;;;;;3.22;74.63;103164.50;5075368;28;20049;-60
2022/01/26 05:49:58;;;;;;;107.40;36.90;;;;;;;3.19;74.91;103159.00;5075516;28;20033;-61
2022/01/26 05:52:23;;;;;;;106.30;35.53;;;;;;;3.20;75.17;103160.81;5075741;28;20052;-60
2022/01/26 05:54:49;;;;;;;106.82;35.53;;;;;;;3.24;74.98;103154.13;5075492;28;20466;-60
2022/01/26 05:57:14;;;;;;;98.60;34.22;;;;;;;3.25;74.53;103151.66;5075379;28;20478;-60
2022/01/26 05:59:39;;;;;;;101.82;35.25;;;;;;;3.25;75.12;103162.13;5075318;28;20406;-60
2022/01/26 06:02:05;;;;;;;112.22;38.20;;;;;;;3.26;74.89;103143.03;5075365;28;20061;-60
2022/01/26 06:04:31;;;;;;;101.57;34.60;;;;;;;3.26;74.96;103143.03;5075144;28;20024;-60
2022/01/26 06:06:57;;;;;;;105.95;37.83;;;;;;;3.23;75.20;103142.78;5075286;28;20071;-60
2022/01/26 06:09:22;;;;;;;101.00;36.03;;;;;;;3.25;75.19;103142.88;5075315;28;20075;-60
2022/01/26 06:11:48;;;;;;;105.63;35.88;;;;;;;3.24;75.61;103147.22;5075122;28;20029;-60
2022/01/26 06:14:13;;;;;;;101.25;36.08;;;;;;;3.32;75.02;103144.28;5075111;28;20436;-60
2022/01/26 06:16:39;;;;;;;106.63;35.25;;;;;;;3.34;75.20;103151.47;5075022;28;20062;-60
2022/01/26 06:19:04;;;;;;;100.38;34.58;;;;;;;3.36;75.27;103155.09;5074913;28;20027;-61
2022/01/26 06:21:29;;;;;;;98.90;34.88;;;;;;;3.40;75.13;103172.84;5074930;28;20035;-60
2022/01/26 06:23:55;;;;;;;102.20;34.15;;;;;;;3.44;75.73;103166.16;5075257;28;20031;-60
2022/01/26 06:26:20;;;;;;;105.55;35.08;;;;;;;3.47;74.80;103169.00;5074803;28;20021;-60
2022/01/26 06:28:46;;;;;;;109.53;36.38;;;;;;;3.44;75.49;103147.84;5074898;28;20531;-60
2022/01/26 06:31:15;;;;;;;111.25;38.95;;;;;;;3.34;74.71;103138.41;5074969;28;20031;-60
2022/01/26 06:33:46;;;;;;;101.95;35.85;;;;;;;3.25;75.88;103142.88;5074694;28;20089;-60
2022/01/26 06:36:14;;;;;;;100.30;33.72;;;;;;;3.27;76.13;103141.31;5073124;28;20410;-60
2022/01/26 06:38:44;;;;;;;92.63;34.88;;;;;;;3.24;75.73;103146.31;5074308;28;20031;-60
2022/01/26 06:41:10;;;;;;;107.20;36.63;;;;;;;3.17;76.33;103144.94;5074429;28;20029;-60
2022/01/26 06:43:44;;;;;;;104.00;34.53;;;;;;;3.12;76.65;103154.09;5074447;28;20043;-60
2022/01/26 06:46:09;;;;;;;104.43;35.55;;;;;;;3.17;76.67;103147.56;5074256;28;20033;-61
2022/01/26 06:51:03;;;;;;;103.03;36.22;;;;;;;3.20;76.70;103166.06;5074388;28;20047;-61
2022/01/26 06:53:28;;;;;;;95.57;35.00;;;;;;;3.25;76.60;103159.50;5074503;28;20407;-60
2022/01/26 06:55:54;;;;;;;104.40;37.08;;;;;;;3.27;76.75;103157.00;5073821;28;20402;-60
2022/01/26 06:58:19;;;;;;;103.95;35.33;;;;;;;3.29;76.77;103155.41;5073964;28;20032;-60
2022/01/26 07:00:45;;;;;;;101.72;37.13;;;;;;;3.33;76.90;103141.78;5074137;28;20046;-60
2022/01/26 07:03:10;;;;;;;104.68;35.00;;;;;;;3.30;76.85;103151.09;5074065;28;20032;-61
2022/01/26 07:05:36;;;;;;;101.18;35.30;;;;;;;3.28;77.14;103163.13;5074296;28;20025;-60
2022/01/26 07:08:02;;;;;;;104.57;35.85;;;;;;;3.29;77.15;103155.41;5074208;28;20036;-60
2022/01/26 07:10:28;;;;;;;100.63;37.30;;;;;;;3.24;77.23;103147.22;5074189;28;20047;-59
2022/01/26 07:12:53;;;;;;;104.40;35.58;;;;;;;3.30;77.11;103149.41;5074040;28;20044;-60
2022/01/26 07:23:23;;;;;;;105.80;37.17;;;;;;;3.23;77.71;103165.41;5073743;28;20029;-60
2022/01/26 07:25:49;;;;;;;99.38;33.97;;;;;;;3.25;78.18;103183.03;5073552;28;20481;-59
2022/01/26 07:28:14;;;;;;;102.68;35.08;;;;;;;3.31;77.71;103187.81;5073515;28;20470;-59
2022/01/26 07:30:40;;;;;;;100.72;35.60;;;;;;;3.32;77.71;103180.88;5055482;28;20021;-61
2022/01/26 07:33:06;;;;;;;106.60;36.72;;;;;;;3.31;78.33;103166.00;5055626;28;20112;-60
2022/01/26 07:35:32;;;;;;;114.72;38.03;;;;;;;3.30;77.88;103187.66;5073791;28;20060;-60
2022/01/26 07:37:59;;;;;;;104.22;35.80;;;;;;;3.26;78.54;103177.00;5073465;28;20501;-61
2022/01/26 07:40:25;;;;;;;108.15;36.65;;;;;;;3.26;78.69;103177.00;5073376;28;20020;-59
2022/01/26 07:42:51;;;;;;;109.60;36.47;;;;;;;3.29;78.48;103176.31;5073581;28;20024;-59
2022/01/26 07:45:17;;;;;;;111.10;37.20;;;;;;;3.30;78.13;103170.31;5073218;28;20386;-60
2022/01/26 07:47:43;;;;;;;103.25;35.75;;;;;;;3.29;78.79;103168.47;5073219;28;20032;-59
2022/01/26 07:50:12;;;;;;;124.20;38.55;;;;;;;3.22;79.54;103167.09;5073181;28;20052;-59
2022/01/26 07:52:40;;;;;;;109.32;38.38;;;;;;;3.19;79.87;103169.47;5055401;28;20036;-59
2022/01/26 07:55:08;;;;;;;113.53;37.65;;;;;;;3.21;79.73;103162.66;5073348;28;20028;-60
2022/01/26 07:57:33;;;;;;;107.35;35.72;;;;;;;3.26;79.94;103174.38;5055299;28;20474;-60
2022/01/26 07:59:59;;;;;;;109.63;36.63;;;;;;;3.31;79.18;103182.59;5072973;28;20082;-60
2022/01/26 08:02:24;;;;;;;107.68;36.85;;;;;;;3.34;79.83;103201.13;5073426;28;20020;-60
2022/01/26 08:04:49;;;;;;;100.25;34.42;;;;;;;3.33;79.81;103201.88;5073330;28;20474;-60
2022/01/26 08:07:15;;;;;;;107.78;35.72;;;;;;;3.40;79.48;103201.59;5054812;28;20473;-60
2022/01/26 08:09:44;;;;;;;113.38;37.40;;;;;;;3.42;79.93;103207.81;5073407;28;20104;-60
2022/01/26 08:12:17;;;;;;;110.35;39.17;;;;;;;3.40;79.37;103208.50;5073024;28;20400;-59
2022/01/26 08:14:43;;;;;;;108.78;35.40;;;;;;;3.37;80.17;103196.09;5072984;28;20029;-60
2022/01/26 08:17:09;;;;;;;98.38;32.80;;;;;;;3.42;80.07;103199.97;5073149;28;20025;-59
2022/01/26 08:19:35;;;;;;;102.40;34.85;;;;;;;3.45;79.70;103205.44;5073190;28;20078;-59
2022/01/26 08:22:02;;;;;;;106.45;36.17;;;;;;;3.49;80.43;103217.06;5072898;28;20025;-60
2022/01/26 08:24:28;;;;;;;116.22;37.72;;;;;;;3.45;80.61;103215.91;5073079;28;20049;-59
2022/01/26 08:26:56;;;;;;;109.05;35.47;;;;;;;3.45;80.56;103202.84;5072804;28;20051;-59
2022/01/26 08:29:28;;;;;;;108.13;36.38;;;;;;;3.40;80.98;103198.06;5072853;28;20531;-60
2022/01/26 08:31:53;;;;;;;105.68;35.67;;;;;;;3.38;80.41;103199.63;5072891;28;20480;-60
2022/01/26 08:34:18;;;;;;;106.88;36.80;;;;;;;3.39;80.59;103205.00;5072960;28;20028;-60
2022/01/26 08:36:44;;;;;;;106.20;36.22;;;;;;;3.40;81.14;103192.84;5072903;28;20093;-60
2022/01/26 08:39:09;;;;;;;110.45;35.88;;;;;;;3.45;80.90;103199.31;5072949;28;20039;-59
2022/01/26 08:41:35;;;;;;;106.43;34.72;;;;;;;3.43;80.69;103204.44;5072789;28;20020;-59
2022/01/26 08:44:00;;;;;;;108.97;35.05;;;;;;;3.43;81.25;103191.38;5072670;28;20427;-59
2022/01/26 08:46:26;;;;;;;115.50;38.03;;;;;;;3.43;81.42;103201.81;5072906;28;20440;-59
2022/01/26 08:48:51;;;;;;;97.75;33.70;;;;;;;3.45;81.36;103210.69;5072598;28;20544;-59
2022/01/26 08:51:18;;;;;;;106.93;35.25;;;;;;;3.47;81.52;103216.06;5072876;28;20024;-59
2022/01/26 08:53:44;;;;;;;100.18;33.15;;;;;;;3.48;81.58;103217.88;5072677;28;20032;-59
2022/01/26 08:56:10;;;;;;;112.20;35.95;;;;;;;3.50;81.45;103211.03;5072630;28;20033;-60
2022/01/26 08:58:35;;;;;;;106.45;34.42;;;;;;;3.51;81.08;103224.25;5072651;28;20020;-59
2022/01/26 09:01:00;;;;;;;105.80;34.00;;;;;;;3.54;81.13;103218.31;5072404;28;20021;-60
2022/01/26 09:03:26;;;;;;;102.97;33.35;;;;;;;3.51;81.47;103213.78;5072524;28;20020;-60
2022/01/26 09:05:51;;;;;;;108.47;35.03;;;;;;;3.49;81.79;103198.75;5072471;28;20063;-59
2022/01/26 09:08:18;;;;;;;105.40;34.47;;;;;;;3.47;82.08;103208.22;5072484;28;20462;-59
2022/01/26 09:10:45;;;;;;;99.25;33.97;;;;;;;3.46;82.06;103208.97;5072642;28;20056;-59
2022/01/26 09:13:10;;;;;;;106.95;34.53;;;;;;;3.46;82.25;103198.53;5072751;28;20158;-59
2022/01/26 09:15:37;;;;;;;100.93;33.50;;;;;;;3.48;81.82;103200.47;5072518;28;20149;-60
2022/01/26 09:18:05;;;;;;;98.15;33.22;;;;;;;3.50;81.69;103206.72;5072460;28;20082;-60
2022/01/26 09:20:34;;;;;;;99.25;33.85;;;;;;;3.50;81.73;103206.72;5074286;28;20036;-59
2022/01/26 09:22:59;;;;;;;101.20;33.17;;;;;;;3.48;82.08;103205.69;5076328;28;20032;-60
2022/01/26 09:25:25;;;;;;;91.40;33.28;;;;;;;3.49;81.93;103217.06;5075977;28;20024;-59
2022/01/26 09:27:50;;;;;;;96.47;32.88;;;;;;;3.51;81.85;103213.78;5076101;28;20098;-59
2022/01/26 09:30:16;;;;;;;101.63;33.63;;;;;;;3.53;82.13;103226.97;5075768;28;20405;-60
2022/01/26 09:32:41;;;;;;;95.25;34.20;;;;;;;3.54;81.63;103227.88;5075867;28;20474;-60
2022/01/26 09:35:08;;;;;;;98.13;32.88;;;;;;;3.56;81.71;103219.38;5075878;28;20044;-59
2022/01/26 09:37:34;;;;;;;96.45;33.38;;;;;;;3.60;82.25;103225.72;5076055;28;20429;-59
2022/01/26 09:39:59;;;;;;;96.63;33.60;;;;;;;3.61;81.93;103223.25;5075694;28;20577;-59
2022/01/26 09:42:24;;;;;;;97.80;32.60;;;;;;;3.64;81.36;103214.69;5075657;28;20024;-59
2022/01/26 09:44:50;;;;;;;86.20;31.33;;;;;;;3.66;81.78;103208.81;5075609;28;20016;-60
2022/01/26 09:47:16;;;;;;;90.47;32.80;;;;;;;3.66;81.79;103205.28;5057529;28;20029;-60
2022/01/26 09:49:41;;;;;;;94.63;33.33;;;;;;;3.67;81.58;103202.78;5075496;28;20124;-60
2022/01/26 09:52:36;;;;;;;94.28;32.78;;;;;;;3.71;81.53;103193.47;5075668;28;20056;-60
2022/01/26 09:55:02;;;;;;;84.20;30.45;;;;;;;3.70;81.00;103178.59;5075279;28;20119;-59
2022/01/26 09:57:29;;;;;;;92.88;35.22;;;;;;;3.61;81.89;103186.66;5075408;28;20419;-60
2022/01/26 09:59:56;;;;;;;86.72;31.45;;;;;;;3.60;81.52;103191.72;5075310;28;20021;-59
2022/01/26 10:02:24;;;;;;;102.82;34.33;;;;;;;3.58;81.95;103199.47;5075681;28;20052;-59
2022/01/26 10:05:06;;;;;;;88.18;31.75;;;;;;;3.59;81.48;103188.22;5075469;28;20086;-59
2022/01/26 10:15:30;;;;;;;81.40;31.17;;;;;;;3.66;82.32;103193.13;5075528;28;20101;-59
2022/01/26 10:18:07;;;;;;;87.90;30.17;;;;;;;3.74;81.11;103180.66;5075199;28;20029;-59
2022/01/26 10:20:57;;;;;;;81.50;29.35;;;;;;;3.75;80.81;103185.97;5075016;28;20029;-59
2022/01/26 10:23:25;;;;;;;79.72;28.95;;;;;;;3.81;80.46;103180.28;5075082;28;20482;-59
2022/01/26 10:26:05;;;;;;;76.75;29.27;;;;;;;3.84;80.03;103170.06;5075105;28;20115;-60
2022/01/26 10:29:00;;;;;;;79.20;30.13;;;;;;;3.83;81.16;103167.34;5075157;28;20036;-59
2022/01/26 10:31:32;;;;;;;63.75;27.17;;;;;;;3.86;81.25;103170.22;5074949;28;20101;-59
2022/01/26 10:34:01;;;;;;;71.07;27.88;;;;;;;3.88;81.00;103171.22;5074817;28;20036;-59
2022/01/26 10:36:35;;;;;;;70.00;27.52;;;;;;;3.94;80.97;103187.34;5074990;28;20036;-60
2022/01/26 10:39:07;;;;;;;73.25;26.83;;;;;;;3.99;80.19;103192.16;5074877;28;20028;-59
2022/01/26 10:41:35;;;;;;;62.78;24.77;;;;;;;4.03;80.19;103214.25;5074353;28;20473;-60
2022/01/26 10:44:02;;;;;;;68.20;26.48;;;;;;;4.04;80.43;103229.13;5074654;28;20024;-59
2022/01/26 10:46:31;;;;;;;64.40;27.02;;;;;;;4.03;79.51;103235.16;5056412;28;20024;-59
2022/01/26 10:49:18;;;;;;;65.25;26.80;;;;;;;4.06;79.82;103227.53;5074459;28;20036;-59
2022/01/26 10:54:37;;;;;;;59.72;25.98;;;;;;;4.12;79.76;103219.25;5074541;28;20040;-60
2022/01/26 10:57:10;;;;;;;69.45;26.40;;;;;;;4.15;79.62;103222.97;5074280;28;20028;-59
2022/01/26 10:59:46;;;;;;;70.05;27.48;;;;;;;4.15;80.49;103227.31;5074087;28;20436;-60
2022/01/26 11:02:13;;;;;;;62.63;28.23;;;;;;;4.14;80.04;103217.63;5074120;28;20060;-59
2022/01/26 11:04:41;;;;;;;65.30;27.33;;;;;;;4.11;79.93;103207.88;5073961;28;20112;-60
2022/01/26 11:07:09;;;;;;;66.22;28.80;;;;;;;4.09;80.25;103203.31;5074266;28;20103;-59
2022/01/26 11:09:37;;;;;;;63.40;26.25;;;;;;;4.11;79.93;103217.41;5074088;28;20112;-59
2022/01/26 11:12:09;;;;;;;64.35;27.00;;;;;;;4.11;80.18;103206.94;5074202;28;20058;-59
2022/01/26 11:14:43;;;;;;;63.72;25.77;;;;;;;4.15;80.53;103207.28;5073937;28;20041;-59
2022/01/26 11:17:11;;;;;;;63.05;26.10;;;;;;;4.17;80.68;103216.16;5073791;28;20509;-59
2022/01/26 11:19:42;;;;;;;59.15;26.35;;;;;;;4.19;80.55;103205.81;5073665;28;20032;-59
2022/01/26 11:22:09;;;;;;;60.75;26.25;;;;;;;4.21;80.33;103199.91;5073851;28;20025;-59
2022/01/26 11:24:46;;;;;;;66.03;26.75;;;;;;;4.17;80.93;103194.34;5073633;28;20056;-59
2022/01/26 11:27:14;;;;;;;64.82;27.77;;;;;;;4.14;80.24;103192.38;5073649;28;20600;-59
2022/01/26 11:29:43;;;;;;;66.10;27.30;;;;;;;4.12;80.79;103196.59;5073666;28;20032;-60
2022/01/26 11:32:14;;;;;;;65.10;26.95;;;;;;;4.09;80.77;103196.38;5073468;28;20091;-60
2022/01/26 11:34:43;;;;;;;69.45;27.67;;;;;;;4.12;81.21;103195.69;5073574;28;20031;-59
2022/01/26 11:37:17;;;;;;;67.28;29.48;;;;;;;4.10;80.60;103185.09;5073597;28;20025;-59
2022/01/26 11:45:35;;;;;;;65.82;26.35;;;;;;;4.09;81.47;103169.31;5074025;28;20486;-58
2022/01/26 11:48:12;;;;;;;78.18;31.20;;;;;;;3.99;81.98;103165.09;5074103;28;20166;-59
2022/01/26 11:50:46;;;;;;;71.10;28.70;;;;;;;4.00;82.26;103164.28;5073514;28;20060;-59
2022/01/26 11:53:16;;;;;;;77.30;30.15;;;;;;;4.00;81.71;103167.81;5073259;28;20041;-59
2022/01/26 11:55:41;;;;;;;71.82;28.38;;;;;;;3.99;82.13;103167.72;5072577;28;20029;-59
2022/01/26 11:58:18;;;;;;;69.13;29.33;;;;;;;4.01;82.33;103167.00;5073152;28;20516;-59
2022/01/26 12:03:21;;;;;;;74.38;29.70;;;;;;;4.04;82.19;103147.13;5073355;28;20043;-59
2022/01/26 12:05:47;;;;;;;73.55;28.23;;;;;;;4.05;81.51;103154.16;5073081;28;20050;-60
2022/01/26 12:08:13;;;;;;;82.30;30.40;;;;;;;4.06;82.11;103150.75;5073069;28;20044;-60
2022/01/26 12:10:39;;;;;;;74.97;31.48;;;;;;;4.05;82.12;103146.31;5073220;28;20105;-59
2022/01/26 12:13:10;;;;;;;73.57;30.75;;;;;;;3.97;81.73;103148.34;5073157;28;20111;-59
2022/01/26 12:16:03;;;;;;;74.28;29.77;;;;;;;3.95;82.37;103149.97;5073057;28;20029;-59
2022/01/26 12:18:35;;;;;;;78.03;31.30;;;;;;;3.93;82.33;103149.84;5072351;28;20068;-59
2022/01/26 12:34:52;;;;;;;71.13;27.90;;;;;;;4.22;81.62;103152.00;5072968;28;20032;-59
2022/01/26 12:45:07;;;;;;;72.10;29.63;;;;;;;4.13;81.28;103150.41;5072752;28;20067;-59
2022/01/26 12:47:33;;;;;;;75.88;28.63;;;;;;;4.13;81.42;103151.31;5072792;28;20534;-60
2022/01/26 12:49:59;;;;;;;67.20;27.80;;;;;;;4.17;81.21;103153.38;5072533;28;20071;-59
2022/01/26 12:52:25;;;;;;;69.13;28.77;;;;;;;4.20;81.71;103151.00;5072732;28;20068;-60
2022/01/26 12:54:50;;;;;;;67.85;27.90;;;;;;;4.20;80.77;103151.00;5073504;28;20033;-60
2022/01/26 12:57:16;;;;;;;68.65;26.58;;;;;;;4.20;80.66;103147.47;5076673;28;20024;-59
2022/01/26 12:59:43;;;;;;;70.55;29.23;;;;;;;4.23;81.03;103153.81;5076707;28;20028;-59
2022/01/26 13:02:09;;;;;;;76.68;28.17;;;;;;;4.26;81.24;103148.81;5076505;28;20413;-59
2022/01/26 13:04:34;;;;;;;70.80;27.20;;;;;;;4.29;80.78;103145.53;5076486;28;20035;-59
2022/01/26 13:07:00;;;;;;;74.28;29.30;;;;;;;4.25;80.83;103127.78;5096162;23;21205;-88
2022/01/26 13:09:28;;;;;;;71.93;29.52;;;;;;;4.35;81.05;103134.56;5034047;23;20050;-69
2022/01/26 13:11:56;;;;;;;63.72;25.65;;;;;;;4.36;80.24;103125.91;5016086;28;20030;-68
2022/01/26 13:14:34;;;;;;;70.25;30.38;;;;;;;4.30;81.04;103121.16;5016124;28;20105;-68
2022/01/26 13:23:01;;;;;;;67.45;28.55;;;;;;;4.37;80.05;103122.50;5015869;28;20478;-67
2022/01/26 13:36:02;;;;;;;59.53;27.10;;;;;;;4.44;80.15;103099.50;5016272;28;20049;-59
2022/01/26 13:38:50;;;;;;;66.40;26.55;;;;;;;4.46;79.98;103110.09;5015168;28;20104;-60
2022/01/26 14:00:03;;;;;;;91.07;40.10;;;;;;;4.44;80.38;103101.22;4974874;28;20045;-60
2022/01/26 14:02:03;;;;;;;96.90;43.15;;;;;;;4.39;79.71;103079.94;4967706;28;20031;-59
2022/01/26 14:04:28;;;;;;;97.78;41.97;;;;;;;4.40;80.39;103086.06;4974700;28;20027;-59
2022/01/26 14:06:54;;;;;;;94.22;40.55;;;;;;;4.45;79.69;103079.47;4974133;28;20640;-59
2022/01/26 14:09:19;;;;;;;99.70;42.25;;;;;;;4.43;80.55;103083.69;4974631;28;20097;-59